createdAt,value
2019-03-17T00:04:44.498Z,13.13
2019-03-17T00:13:17.919Z,14.67
2019-03-17T00:15:49.585Z,13.63
2019-03-17T00:18:21.110Z,14.83
2019-03-17T00:20:52.925Z,14.40
2019-03-17T00:23:24.433Z,16.30
2019-03-17T00:25:56.053Z,15.23
2019-03-17T00:28:27.506Z,16.37
2019-03-17T00:30:59.045Z,16.33
2019-03-17T00:33:30.996Z,15.57
2019-03-17T00:36:02.725Z,17.23
2019-03-17T00:38:34.150Z,16.63
2019-03-17T00:41:05.801Z,18.93
2019-03-17T00:43:37.810Z,17.10
2019-03-17T00:46:09.260Z,17.60
2019-03-17T00:48:42.743Z,18.27
2019-03-17T00:51:13.997Z,18.40
2019-03-17T00:53:45.398Z,19.17
2019-03-17T00:56:16.897Z,19.10
2019-03-17T00:58:48.328Z,18.07
2019-03-17T01:01:19.714Z,19.63
2019-03-17T01:03:51.296Z,19.43
2019-03-17T01:36:49.861Z,21.70
2019-03-17T01:39:21.610Z,20.23
2019-03-17T01:41:53.332Z,21.70
2019-03-17T01:44:24.917Z,21.20
2019-03-17T01:46:56.190Z,20.43
2019-03-17T01:49:29.584Z,21.47
2019-03-17T01:55:11.429Z,19.73
2019-03-17T01:57:42.944Z,19.60
2019-03-17T02:00:14.230Z,20.03
2019-03-17T02:02:45.789Z,19.77
2019-03-17T02:05:22.202Z,19.00
2019-03-17T02:07:50.231Z,19.73
2019-03-17T02:10:21.929Z,18.73
2019-03-17T02:12:53.349Z,19.27
2019-03-17T02:15:24.804Z,19.03
2019-03-17T02:17:56.262Z,19.50
2019-03-17T02:20:27.688Z,19.73
2019-03-17T02:22:59.105Z,18.90
2019-03-17T02:25:30.537Z,18.37
2019-03-17T02:52:51.806Z,18.93
2019-03-17T02:55:23.643Z,19.63
2019-03-17T02:57:54.951Z,19.97
2019-03-17T03:00:26.367Z,19.73
2019-03-17T03:02:57.971Z,19.83
2019-03-17T03:33:42.786Z,17.60
2019-03-17T06:14:27.437Z,8.67
2019-03-17T06:16:59.115Z,8.17
2019-03-17T06:19:30.719Z,8.10
2019-03-17T06:22:01.926Z,8.10
2019-03-17T06:24:33.257Z,7.80
2019-03-17T06:27:05.054Z,8.07
2019-03-17T06:29:36.447Z,7.63
2019-03-17T06:32:07.904Z,7.90
2019-03-17T06:34:39.269Z,7.67
2019-03-17T06:37:10.552Z,7.40
2019-03-17T06:39:41.941Z,7.23
2019-03-17T06:42:13.333Z,6.93
2019-03-17T06:44:44.991Z,6.83
2019-03-17T06:47:17.401Z,7.30
2019-03-17T06:49:48.858Z,6.87
2019-03-17T06:52:20.158Z,6.47
2019-03-17T06:54:51.441Z,6.83
2019-03-17T06:57:22.838Z,7.00
2019-03-17T06:59:54.484Z,6.73
2019-03-17T07:02:26.008Z,6.13
2019-03-17T07:04:57.292Z,7.43
2019-03-17T07:07:28.746Z,6.43
2019-03-17T07:10:00.412Z,6.90
2019-03-17T07:12:32.619Z,6.23
2019-03-17T07:15:04.802Z,5.80
2019-03-17T07:17:36.342Z,5.73
2019-03-17T07:20:08.897Z,6.03
2019-03-17T07:22:40.665Z,5.33
2019-03-17T07:25:12.024Z,5.43
2019-03-17T07:27:45.181Z,5.77
2019-03-17T07:30:19.106Z,5.10
2019-03-17T07:32:50.418Z,5.23
2019-03-17T07:35:22.011Z,5.07
2019-03-17T07:46:58.887Z,3.90
2019-03-17T07:49:30.397Z,4.63
2019-03-17T07:52:01.850Z,4.30
2019-03-17T07:54:35.262Z,4.37
2019-03-17T07:57:06.708Z,4.30
2019-03-17T07:59:38.219Z,4.10
2019-03-17T08:02:10.811Z,4.10
2019-03-17T08:04:46.018Z,4.60
2019-03-17T08:07:15.362Z,4.47
2019-03-17T08:09:46.610Z,3.97
2019-03-17T08:12:18.345Z,3.97
2019-03-17T08:14:50.114Z,3.90
2019-03-17T08:17:21.859Z,3.90
2019-03-17T08:19:53.328Z,4.07
2019-03-17T08:22:24.618Z,4.10
2019-03-17T08:24:56.883Z,4.00
2019-03-17T08:27:28.360Z,3.70
2019-03-17T08:29:59.744Z,4.30
2019-03-17T08:32:32.662Z,3.87
2019-03-17T08:35:05.541Z,4.07
2019-03-17T08:37:36.928Z,4.00
2019-03-17T08:40:10.254Z,4.33
2019-03-17T08:42:41.851Z,4.10
2019-03-17T08:45:14.146Z,3.70
2019-03-17T08:47:57.140Z,3.87
2019-03-17T08:50:19.214Z,6.15
2019-03-17T08:52:51.089Z,5.27
2019-03-17T08:55:27.048Z,5.17
2019-03-17T08:57:59.301Z,6.70
2019-03-17T09:00:30.643Z,6.27
2019-03-17T09:03:02.169Z,4.95
2019-03-17T09:05:33.440Z,4.83
2019-03-17T09:08:04.806Z,5.15
2019-03-17T09:10:36.464Z,4.58
2019-03-17T09:13:07.939Z,4.00
2019-03-17T09:15:39.276Z,4.47
2019-03-17T09:18:11.644Z,3.53
2019-03-17T09:20:44.269Z,3.55
2019-03-17T09:23:15.929Z,3.70
2019-03-17T09:25:48.609Z,4.00
2019-03-17T09:28:19.876Z,4.50
2019-03-17T09:30:51.355Z,3.90
2019-03-17T09:33:22.741Z,4.00
2019-03-17T09:35:54.297Z,3.90
2019-03-17T09:38:25.613Z,3.92
2019-03-17T09:40:56.917Z,4.13
2019-03-17T09:43:27.724Z,4.37
2019-03-17T09:45:58.784Z,3.80
2019-03-17T09:48:31.139Z,4.40
2019-03-17T09:51:01.966Z,3.87
2019-03-17T09:53:33.306Z,3.55
2019-03-17T09:56:04.601Z,3.90
2019-03-17T09:58:36.597Z,3.42
2019-03-17T10:01:08.188Z,2.90
2019-03-17T10:03:41.209Z,3.62
2019-03-17T10:06:12.406Z,3.43
2019-03-17T10:08:43.816Z,3.10
2019-03-17T10:11:16.449Z,3.43
2019-03-17T10:13:47.996Z,3.90
2019-03-17T10:16:20.276Z,4.22
2019-03-17T10:18:52.944Z,3.47
2019-03-17T10:21:26.004Z,3.72
2019-03-17T10:23:57.598Z,3.85
2019-03-17T10:26:29.694Z,3.27
2019-03-17T10:29:01.364Z,3.60
2019-03-17T10:31:33.673Z,3.60
2019-03-17T12:44:43.534Z,2.47
2019-03-17T12:47:15.810Z,2.40
2019-03-17T12:49:47.017Z,2.20
2019-03-17T12:52:18.330Z,2.90
2019-03-17T12:54:50.241Z,2.60
2019-03-17T12:57:21.629Z,2.42
2019-03-17T12:59:53.450Z,2.43
2019-03-17T13:02:24.839Z,2.20
2019-03-17T13:04:56.202Z,2.12
2019-03-17T13:07:30.100Z,2.70
2019-03-17T13:10:10.668Z,2.60
2019-03-17T13:53:35.414Z,2.12
2019-03-17T13:56:07.635Z,2.50
2019-03-17T13:58:39.053Z,2.40
2019-03-17T14:01:10.582Z,2.90
2019-03-17T14:03:41.921Z,3.00
2019-03-17T14:06:13.157Z,2.37
2019-03-17T14:08:46.094Z,2.30
2019-03-17T14:11:17.571Z,2.87
2019-03-17T14:13:49.074Z,2.27
2019-03-17T14:16:21.133Z,2.20
2019-03-17T14:18:52.820Z,2.70
2019-03-17T14:21:24.626Z,2.50
2019-03-17T14:23:56.306Z,2.57
2019-03-17T14:26:28.517Z,2.50
2019-03-17T14:29:00.054Z,2.80
2019-03-17T14:31:31.753Z,2.30
2019-03-17T14:34:03.290Z,2.53
2019-03-17T14:36:35.766Z,2.27
2019-03-17T14:39:08.023Z,2.30
2019-03-17T14:41:39.355Z,2.03
2019-03-17T14:44:11.017Z,1.90
2019-03-17T14:46:42.536Z,2.10
2019-03-17T14:49:18.854Z,2.30
2019-03-17T14:51:51.512Z,2.20
2019-03-17T14:54:23.131Z,2.83
2019-03-17T14:56:54.752Z,2.33
2019-03-17T14:59:26.847Z,2.43
2019-03-17T15:01:58.326Z,2.50
2019-03-17T15:04:30.027Z,2.80
2019-03-17T15:07:01.791Z,2.43
2019-03-17T15:09:35.589Z,3.00
2019-03-17T15:12:07.212Z,2.60
2019-03-17T15:14:38.636Z,2.47
2019-03-17T15:17:10.049Z,2.63
2019-03-17T15:19:41.671Z,2.40
2019-03-17T15:22:13.256Z,2.40
2019-03-17T15:24:44.885Z,2.73
2019-03-17T15:27:17.039Z,2.80
2019-03-17T15:29:49.132Z,2.90
2019-03-17T15:32:20.504Z,2.53
2019-03-17T15:34:51.948Z,2.63
2019-03-17T15:37:24.809Z,2.60
2019-03-17T15:39:56.518Z,2.80
2019-03-17T15:42:28.007Z,2.67
2019-03-17T15:44:59.412Z,2.93
2019-03-17T15:47:31.448Z,2.57
2019-03-17T15:50:03.082Z,2.93
2019-03-17T15:52:35.422Z,2.97
2019-03-17T15:55:07.361Z,2.93
2019-03-17T15:57:38.721Z,2.53
2019-03-17T16:00:24.138Z,3.23
2019-03-17T16:02:46.674Z,3.10
2019-03-17T16:05:18.829Z,4.33
2019-03-17T16:07:52.129Z,4.10
2019-03-17T16:10:25.203Z,8.53
2019-03-17T16:12:56.803Z,8.60
2019-03-17T16:15:28.395Z,8.70
2019-03-17T16:18:01.104Z,8.47
2019-03-17T16:20:33.088Z,8.47
2019-03-17T16:23:05.062Z,6.90
2019-03-17T16:25:37.172Z,7.70
2019-03-17T16:28:08.710Z,6.53
2019-03-17T16:30:41.901Z,7.10
2019-03-17T16:33:17.314Z,6.13
2019-03-17T16:35:52.469Z,6.57
2019-03-17T16:38:24.983Z,4.40
2019-03-17T16:40:56.385Z,5.87
2019-03-17T16:43:27.794Z,5.13
2019-03-17T16:45:59.151Z,4.93
2019-03-17T16:48:30.701Z,5.10
2019-03-17T16:51:03.412Z,5.20
2019-03-17T16:53:34.824Z,4.90
2019-03-17T16:56:06.538Z,5.27
2019-03-17T16:58:38.223Z,5.03
2019-03-17T17:01:10.253Z,5.00
2019-03-17T17:03:41.544Z,4.80
2019-03-17T17:06:12.899Z,5.30
2019-03-17T17:08:44.215Z,5.20
2019-03-17T17:11:15.737Z,6.00
2019-03-17T17:13:47.205Z,5.53
2019-03-17T17:16:18.513Z,6.10
2019-03-17T17:18:50.023Z,6.27
2019-03-17T17:21:21.415Z,6.97
2019-03-17T17:23:52.673Z,8.17
2019-03-17T17:26:36.319Z,8.00
2019-03-17T17:28:57.277Z,8.37
2019-03-17T17:31:29.006Z,7.77
2019-03-17T17:34:00.549Z,7.70
2019-03-17T17:36:32.150Z,8.03
2019-03-17T17:39:04.658Z,7.93
2019-03-17T17:41:36.159Z,7.73
2019-03-17T17:44:10.086Z,7.97
2019-03-17T17:46:41.621Z,7.67
2019-03-17T17:49:13.540Z,8.00
2019-03-17T17:51:45.333Z,7.70
2019-03-17T17:54:16.990Z,6.80
2019-03-17T17:56:48.719Z,7.13
2019-03-17T17:59:20.548Z,6.60
2019-03-17T18:01:52.508Z,6.73
2019-03-17T18:04:24.765Z,7.13
2019-03-17T18:06:56.345Z,6.47
2019-03-17T18:09:27.977Z,6.50
2019-03-17T18:11:59.285Z,7.37
2019-03-17T18:14:30.774Z,8.17
2019-03-17T18:17:02.454Z,6.03
2019-03-17T18:19:34.237Z,5.87
2019-03-17T18:22:05.573Z,5.87
2019-03-17T18:24:37.549Z,5.63
2019-03-17T18:27:09.044Z,6.03
2019-03-17T18:29:40.639Z,5.63
2019-03-17T18:32:14.511Z,6.37
2019-03-17T18:34:45.924Z,6.23
2019-03-17T18:37:24.358Z,5.43
2019-03-17T18:40:03.176Z,5.43
2019-03-17T18:42:43.911Z,5.57
2019-03-17T18:45:18.474Z,6.00
2019-03-17T18:47:50.062Z,7.43
2019-03-17T18:50:21.645Z,6.40
2019-03-17T18:52:53.096Z,6.23
2019-03-17T18:55:24.449Z,6.03
2019-03-17T18:57:55.919Z,5.00
2019-03-17T19:00:27.525Z,6.03
2019-03-17T19:02:59.231Z,4.50
2019-03-17T19:05:30.705Z,6.40
2019-03-17T19:08:02.073Z,5.67
2019-03-17T19:10:33.705Z,5.77
2019-03-17T19:13:05.445Z,6.53
2019-03-17T19:15:37.144Z,13.27
2019-03-17T19:18:08.436Z,12.83
2019-03-17T19:20:40.620Z,14.60
2019-03-17T19:23:14.216Z,15.23
2019-03-17T19:25:45.770Z,14.67
2019-03-17T19:28:17.131Z,12.37
2019-03-17T19:30:48.624Z,11.10
2019-03-17T19:33:20.185Z,13.77
2019-03-17T19:35:55.034Z,11.67
2019-03-17T19:38:27.873Z,13.37
2019-03-17T19:41:03.368Z,14.07
2019-03-17T19:43:35.998Z,14.63
2019-03-17T19:46:07.425Z,16.13
2019-03-17T19:49:04.585Z,17.27
2019-03-17T19:51:38.759Z,16.17
2019-03-17T19:54:10.527Z,14.40
2019-03-17T19:56:41.909Z,16.90
2019-03-17T19:59:15.657Z,14.53
2019-03-17T20:01:47.047Z,14.23
2019-03-17T20:04:29.707Z,11.87
2019-03-17T20:06:54.352Z,13.20
2019-03-17T20:09:25.594Z,11.60
2019-03-17T20:11:57.275Z,10.47
2019-03-17T20:14:30.539Z,9.93
2019-03-17T20:17:02.146Z,10.67
2019-03-17T20:19:33.835Z,9.97
2019-03-17T20:22:05.204Z,8.90
2019-03-17T20:24:36.638Z,7.13
2019-03-17T20:27:12.147Z,8.20
2019-03-17T20:29:43.428Z,7.53
2019-03-17T20:32:14.905Z,7.17
2019-03-17T20:34:46.309Z,6.90
2019-03-17T20:37:18.410Z,6.17
2019-03-17T20:39:50.123Z,5.83
2019-03-17T20:42:21.720Z,5.67
2019-03-17T20:44:53.083Z,5.20
2019-03-17T20:47:24.663Z,5.77
2019-03-17T20:49:56.316Z,5.33
2019-03-17T20:52:27.840Z,5.53
2019-03-17T20:54:59.194Z,5.60
2019-03-17T20:57:30.600Z,4.80
2019-03-17T21:00:03.215Z,5.53
2019-03-17T21:02:37.205Z,4.57
2019-03-17T21:05:09.146Z,4.27
2019-03-17T21:07:41.165Z,4.60
2019-03-17T21:10:12.753Z,4.70
2019-03-17T21:12:44.429Z,4.40
2019-03-17T21:15:15.909Z,4.27
2019-03-17T21:17:47.389Z,4.23
2019-03-17T21:20:20.080Z,5.10
2019-03-17T21:22:51.473Z,4.70
2019-03-17T21:25:22.787Z,4.00
2019-03-17T21:27:54.149Z,3.97
2019-03-17T21:30:25.591Z,4.10
2019-03-17T21:32:57.194Z,3.60
2019-03-17T21:35:30.707Z,4.00
2019-03-17T21:38:01.991Z,3.73
2019-03-17T21:40:33.444Z,3.50
2019-03-17T21:43:05.021Z,4.13
2019-03-17T21:45:36.682Z,3.53
2019-03-17T21:48:07.965Z,4.10
2019-03-17T21:50:40.890Z,3.73
2019-03-17T21:53:12.429Z,4.33
2019-03-17T21:55:44.191Z,3.50
2019-03-17T22:07:09.098Z,4.63
2019-03-17T22:09:42.886Z,4.87
2019-03-17T22:12:14.221Z,4.53
2019-03-17T22:14:45.796Z,4.57
2019-03-17T22:17:19.050Z,4.13
2019-03-17T22:19:54.429Z,4.17
2019-03-17T22:22:25.982Z,4.53
2019-03-17T22:24:58.725Z,4.33
2019-03-17T22:27:30.618Z,3.93
2019-03-17T22:30:01.963Z,4.10
2019-03-17T22:32:33.845Z,4.40
2019-03-17T22:35:05.903Z,4.13
2019-03-17T22:37:42.521Z,4.37
2019-03-17T22:40:12.325Z,4.93
2019-03-17T22:42:44.184Z,4.17
2019-03-17T22:45:18.752Z,4.80
2019-03-17T22:47:50.330Z,4.47
2019-03-17T22:50:23.435Z,4.73
2019-03-17T22:52:55.373Z,4.40
2019-03-17T22:55:26.862Z,4.80
2019-03-17T22:58:01.131Z,5.27
2019-03-17T23:00:43.574Z,4.57
2019-03-17T23:42:21.088Z,4.33
2019-03-17T23:44:52.702Z,5.37
2019-03-17T23:47:24.514Z,4.90
2019-03-17T23:49:56.202Z,4.80
2019-03-17T23:52:27.874Z,4.83
2019-03-17T23:54:59.965Z,4.83
2019-03-17T23:57:33.556Z,4.67
